Racecast

Carlie Thomas-Lawson

Virginia Beach Flames (VA) · 5 · Compare head to head

Athlete rating 109.9 2026 TF season
Best race 110.3 TF
Races 25
Seasons 1 2026
Rating scale ?
Speed rating — all races

Track & Field

TF speed rating

2026 TF 109.3

Virginia Beach Flames (VA) · Grade 5

Date Meet Event Result Place Rating Difficulty PR/SR Flags
2026-05-24 HR Hurricanes CAT 5 Invite 200m 32.32 26th · 6th on team -0.035 ★PR SR
2026-05-24 HR Hurricanes CAT 5 Invite 400m 1:15.06 19th · 5th on team -0.035
2026-05-09 VA "Legends" T & F Youth Invite 200m 33.4 33rd · 5th on team -0.033
2026-05-09 VA "Legends" T & F Youth Invite 400m 1:14.44 31st · 5th on team -0.033 ★PR SR
2026-05-02 The DMV Track and Field Classic 400m 1:16.05 10th · 3rd on team -0.021 PR SR
2026-05-02 The DMV Track and Field Classic 200m 33.11 14th · 8th on team -0.021 PR SR
2026-04-26 Virginia Pride Spring Kick-Off javelin 24-03 -0.029
2026-04-26 Virginia Pride Spring Kick-Off 200m 35.4 57th · 8th on team -0.029
2026-04-26 Virginia Pride Spring Kick-Off 400m 1:19.64 42nd · 6th on team -0.029
2026-03-06 AAU Indoor National Championship 400m 1:26.58 58th · 4th on team -0.036
2026-03-06 AAU Indoor National Championship 200m 33.86 77th · 5th on team -0.036
2026-02-28 BWSP Queens and Kings Championships 200m 34.31 34th · 11th on team -0.024
2026-02-28 BWSP Queens and Kings Championships 400m 1:17.8 16th · 5th on team -0.024 PR SR
2026-02-22 3rd Annual HRH Winter Storm Classic 400m 1:19.53 15th · 3rd on team -0.024 PR SR
2026-02-22 3rd Annual HRH Winter Storm Classic 800m 3:25.15 12th · 2nd on team 110.3 -0.024 ★PR ★R SR RSR
2026-01-31 BWSP Queens and Kings - Meet 3 55m 9.26 28th · 11th on team -0.024 ★PR SR
2026-01-31 BWSP Queens and Kings - Meet 3 200m 35.62 29th · 10th on team -0.024
2026-01-31 BWSP Queens and Kings - Meet 3 400m 1:22.38 18th · 6th on team -0.024
2026-01-25 Virginia Beach Flames Invitational 400m 1:24.66 7th · 5th on team -0.036
2026-01-25 Virginia Beach Flames Invitational 800m 3:27.32 3rd · 3rd on team 108.3 -0.036 PR R SR RSR
2026-01-25 Virginia Beach Flames Invitational 200m 36.49 9th · 7th on team -0.036
2026-01-17 BWSP Queens and Kings - Meet 2 200m 37.73 38th · 11th on team -0.024
2026-01-17 BWSP Queens and Kings - Meet 2 400m 1:22.26 23rd · 8th on team -0.024 PR SR
2026-01-03 BWSP Queens and Kings - Meet 1 200m 33.78 19th · 3rd on team -0.024 PR SR
2026-01-03 BWSP Queens and Kings - Meet 1 400m 1:22.53 18th · 3rd on team -0.024 PR SR